Time;durP1;ratioP1;P1;durP2;ratioP2;P2;SDS_P1;SDS_P2;PMS_P1;PMS_P2;Temp;Humidity;BMP_temperature;BMP_pressure;BME280_temperature;BME280_humidity;BME280_pressure;Samples;Min_cycle;Max_cycle;Signal;HPM_P1;HPM_P2
2022/10/08 00:00:44;;;;;;;6.83;6.40;;;;;;;15.61;100.00;32164.94;5135978;27;20194;-62
2022/10/08 00:03:11;;;;;;;6.37;5.97;;;;;;;15.55;100.00;32812.28;5135976;27;20217;-62
2022/10/08 00:05:38;;;;;;;7.23;6.57;;;;;;;15.58;100.00;31187.63;5136258;27;20281;-62
2022/10/08 00:08:05;;;;;;;6.73;6.23;;;;;;;15.57;100.00;31512.50;5135755;27;20179;-62
2022/10/08 00:10:34;;;;;;;7.10;6.43;;;;;;;15.54;100.00;23716.03;5136148;27;20557;-62
2022/10/08 00:13:01;;;;;;;6.60;6.10;;;;;;;15.59;100.00;25665.38;5135817;27;20193;-62
2022/10/08 00:15:28;;;;;;;6.73;6.30;;;;;;;15.56;100.00;25339.38;5135723;27;20204;-62
2022/10/08 00:17:55;;;;;;;6.87;6.33;;;;;;;15.44;100.00;22414.69;5135971;27;20633;-62
2022/10/08 00:20:22;;;;;;;6.60;6.00;;;;;;;15.39;100.00;20792.00;5135631;27;20226;-62
2022/10/08 00:22:50;;;;;;;7.23;6.67;;;;;;;15.28;100.00;18196.66;5135753;27;20266;-62
2022/10/08 00:25:17;;;;;;;7.03;6.50;;;;;;;15.21;100.00;15929.16;5135508;27;20179;-63
2022/10/08 00:27:46;;;;;;;7.23;6.63;;;;;;;15.28;100.00;13344.44;5117363;27;20186;-63
2022/10/08 00:30:13;;;;;;;7.30;6.87;;;;;;;15.27;100.00;13667.28;5135663;27;20668;-62
2022/10/08 00:32:40;;;;;;;6.70;6.30;;;;;;;15.28;100.00;13021.06;5135746;27;20182;-63
2022/10/08 00:35:08;;;;;;;7.43;6.93;;;;;;;15.25;100.00;11727.69;5135407;27;20257;-62
2022/10/08 00:37:34;;;;;;;7.27;6.67;;;;;;;15.28;100.00;11405.34;5135252;27;20189;-62
2022/10/08 00:40:01;;;;;;;7.40;6.70;;;;;;;15.20;100.00;9788.81;5135550;27;20709;-61
2022/10/08 00:42:28;;;;;;;9.03;7.00;;;;;;;15.19;100.00;9142.84;5135299;27;20193;-62
2022/10/08 00:44:59;;;;;;;7.50;6.80;;;;;;;15.21;100.00;8497.81;5135075;27;20671;-63
2022/10/08 00:47:39;;;;;;;8.50;7.90;;;;;;;15.04;100.00;7526.72;5135405;27;20635;-63
2022/10/08 00:50:12;;;;;;;7.40;6.93;;;;;;;15.06;100.00;6882.06;5135003;27;20175;-62
2022/10/08 00:52:43;;;;;;;7.50;7.00;;;;;;;15.19;100.00;5594.03;5134985;27;20239;-62
2022/10/08 00:55:11;;;;;;;7.73;7.20;;;;;;;15.16;100.00;5271.16;5134910;27;20183;-62
2022/10/08 00:57:39;;;;;;;7.43;6.77;;;;;;;15.15;100.00;5915.88;5134911;27;20193;-63
2022/10/08 01:00:10;;;;;;;7.70;7.03;;;;;;;15.08;100.00;5592.50;5135192;27;20183;-63
2022/10/08 01:02:37;;;;;;;7.43;6.80;;;;;;;15.13;100.00;5270.75;5135178;27;20187;-62
2022/10/08 01:05:05;;;;;;;7.30;6.80;;;;;;;15.01;100.00;6881.16;5135038;27;20714;-62
2022/10/08 01:07:39;;;;;;;7.50;7.10;;;;;;;15.14;100.00;8819.09;5134665;27;20256;-62
2022/10/08 01:10:14;;;;;;;7.20;6.90;;;;;;;15.13;100.00;11401.75;5134994;27;20551;-62
2022/10/08 01:12:46;;;;;;;7.53;7.03;;;;;;;15.03;100.00;12691.47;5134916;27;20186;-61
2022/10/08 01:15:22;;;;;;;7.50;6.80;;;;;;;14.96;100.00;13012.84;5134809;27;20584;-62
2022/10/08 01:17:58;;;;;;;7.20;6.50;;;;;;;15.09;100.00;15278.78;5134507;27;20182;-62
2022/10/08 01:20:37;;;;;;;8.27;7.50;;;;;;;15.08;100.00;15925.22;5134419;27;20282;-63
2022/10/08 01:23:29;;;;;;;7.63;7.23;;;;;;;15.07;100.00;15278.19;5134496;27;20183;-61
2022/10/08 01:26:03;;;;;;;7.53;7.03;;;;;;;15.13;100.00;15926.66;5134697;27;20221;-62
2022/10/08 01:28:37;;;;;;;6.87;6.43;;;;;;;15.08;100.00;16248.81;5134343;27;20188;-62
2022/10/08 01:31:08;;;;;;;7.33;6.77;;;;;;;15.16;100.00;16251.03;5134234;27;20183;-62
2022/10/08 01:33:41;;;;;;;7.63;7.23;;;;;;;15.15;100.00;16897.72;5134708;27;20179;-62
2022/10/08 01:36:11;;;;;;;7.33;6.80;;;;;;;15.13;100.00;16897.06;5134239;27;20183;-61
2022/10/08 01:38:43;;;;;;;7.70;7.10;;;;;;;15.19;100.00;16899.03;5134379;27;20187;-62
2022/10/08 01:41:13;;;;;;;9.37;7.53;;;;;;;15.13;100.00;17544.34;5133986;27;20198;-62
2022/10/08 01:43:46;;;;;;;8.07;7.43;;;;;;;15.14;100.00;15603.53;5134569;27;20240;-62
2022/10/08 01:46:19;;;;;;;7.57;7.00;;;;;;;15.15;100.00;15280.47;5134036;27;20183;-62
2022/10/08 01:48:49;;;;;;;7.60;6.87;;;;;;;15.10;100.00;14632.47;5134210;27;20193;-62
2022/10/08 01:51:21;;;;;;;7.83;7.40;;;;;;;14.95;100.00;13658.75;5134215;27;20202;-63
2022/10/08 01:53:50;;;;;;;7.63;7.33;;;;;;;15.03;100.00;13014.69;5133699;27;20183;-62
2022/10/08 01:56:21;;;;;;;8.00;7.60;;;;;;;14.96;100.00;12689.78;5133765;27;20226;-62
2022/10/08 01:58:54;;;;;;;8.20;7.63;;;;;;;15.02;100.00;12045.28;5133687;27;20185;-64
2022/10/08 02:01:27;;;;;;;8.10;7.40;;;;;;;14.97;100.00;12044.06;5133659;27;20196;-63
2022/10/08 02:06:44;;;;;;;8.00;7.60;;;;;;;15.00;100.00;12690.84;5133842;27;20689;-63
2022/10/08 02:09:11;;;;;;;8.10;7.60;;;;;;;15.00;100.00;13660.13;5133441;27;20183;-62
2022/10/08 02:11:39;;;;;;;8.63;7.50;;;;;;;15.01;100.00;13983.56;5133730;27;20563;-62
2022/10/08 02:14:07;;;;;;;8.67;8.03;;;;;;;15.03;100.00;14953.84;5133580;27;20607;-62
2022/10/08 02:16:38;;;;;;;8.20;7.60;;;;;;;15.01;100.00;15276.53;5133269;27;20183;-62
2022/10/08 02:19:11;;;;;;;8.27;7.80;;;;;;;14.92;100.00;15596.94;5133599;27;20218;-63
2022/10/08 02:21:40;;;;;;;12.30;7.50;;;;;;;14.91;100.00;13980.75;5112653;28;20184;-62
2022/10/08 02:24:13;;;;;;;9.20;8.50;;;;;;;14.95;100.00;13658.75;5113117;28;20585;-62
2022/10/08 02:26:47;;;;;;;8.50;8.00;;;;;;;14.99;100.00;13983.00;5112573;28;20187;-62
2022/10/08 02:29:23;;;;;;;8.80;8.30;;;;;;;14.83;100.00;14301.44;5112607;28;20197;-62
2022/10/08 02:31:53;;;;;;;9.10;8.33;;;;;;;14.92;100.00;12688.75;5112489;28;20179;-63
2022/10/08 02:34:28;;;;;;;9.00;8.20;;;;;;;14.98;100.00;12367.16;5112547;28;20221;-61
2022/10/08 02:37:01;;;;;;;9.17;8.53;;;;;;;15.01;100.00;12691.09;5112361;28;20187;-61
2022/10/08 02:39:30;;;;;;;9.37;8.57;;;;;;;15.01;100.00;11721.94;5112422;28;20183;-62
2022/10/08 02:42:02;;;;;;;10.03;9.03;;;;;;;14.95;100.00;10106.25;5112619;28;20218;-62
2022/10/08 02:44:35;;;;;;;10.63;9.57;;;;;;;14.92;100.00;8169.75;5112327;28;20207;-61
2022/10/08 02:47:08;;;;;;;10.53;9.57;;;;;;;14.96;100.00;6557.97;5112276;28;20211;-63
2022/10/08 02:49:40;;;;;;;10.47;9.40;;;;;;;14.98;100.00;4624.19;5112527;28;20649;-63
2022/10/08 02:52:09;;;;;;;9.80;9.40;;;;;;;14.91;100.00;3334.75;5112517;28;20198;-62
2022/10/08 02:54:39;;;;;;;10.53;9.77;;;;;;;14.90;100.00;1724.63;5112201;28;20219;-62
2022/10/08 02:57:13;;;;;;;11.03;10.20;;;;;;;15.02;100.00;759.78;5112091;28;20328;-63
2022/10/08 02:59:43;;;;;;;10.30;9.70;;;;;;;15.09;100.00;760.22;5112495;28;20187;-62
2022/10/08 03:02:14;;;;;;;11.00;9.93;;;;;;;15.07;100.00;438.19;5112113;28;20222;-62
2022/10/08 03:04:45;;;;;;;9.83;9.33;;;;;;;15.02;100.00;-849.25;5112034;28;20213;-62
2022/10/08 03:07:14;;;;;;;10.50;9.50;;;;;;;15.04;100.00;-1814.25;5112033;28;20618;-62
2022/10/08 03:09:44;;;;;;;16.10;10.20;;;;;;;15.00;100.00;-2135.97;5112323;28;20691;-62
2022/10/08 03:12:12;;;;;;;10.67;9.93;;;;;;;15.08;100.00;-2457.44;5112037;28;20274;-64
2022/10/08 03:14:43;;;;;;;11.03;10.13;;;;;;;15.05;100.00;-3100.59;5112529;28;20542;-63
2022/10/08 03:17:14;;;;;;;10.47;9.77;;;;;;;15.02;100.00;-3100.59;5116640;28;20649;-62
2022/10/08 03:19:40;;;;;;;10.50;9.90;;;;;;;15.03;100.00;-3422.09;5120551;27;20234;-62
2022/10/08 03:22:08;;;;;;;11.43;10.60;;;;;;;14.97;100.00;-3743.53;5137119;27;20191;-63
2022/10/08 03:24:36;;;;;;;10.57;9.87;;;;;;;14.96;100.00;-4386.28;5136950;27;20206;-62
2022/10/08 03:27:03;;;;;;;10.03;9.30;;;;;;;15.04;100.00;-4707.81;5136622;27;20194;-62
2022/10/08 03:29:30;;;;;;;11.63;10.83;;;;;;;15.04;100.00;-4707.81;5136957;27;20182;-62
2022/10/08 03:31:58;;;;;;;11.60;10.97;;;;;;;14.95;100.00;-6313.78;5136622;27;20187;-62
2022/10/08 03:34:25;;;;;;;12.10;11.10;;;;;;;14.97;100.00;-7277.25;5136878;27;20183;-62
2022/10/08 03:36:52;;;;;;;12.03;11.13;;;;;;;14.91;100.00;-9202.56;5136776;27;20197;-62
2022/10/08 03:39:19;;;;;;;11.77;10.80;;;;;;;14.97;100.00;-9844.84;5136751;27;20561;-62
2022/10/08 03:41:46;;;;;;;12.57;11.67;;;;;;;14.93;100.00;-11127.31;5136709;27;20187;-62
2022/10/08 03:44:13;;;;;;;12.93;11.77;;;;;;;15.00;100.00;-12410.78;5136169;27;20207;-62
2022/10/08 03:46:40;;;;;;;13.07;11.80;;;;;;;15.03;100.00;-13693.44;5136626;27;20566;-62
2022/10/08 03:49:08;;;;;;;13.03;12.03;;;;;;;15.08;100.00;-14014.75;5136513;27;20555;-63
2022/10/08 03:51:35;;;;;;;13.50;12.37;;;;;;;15.06;100.00;-14334.75;5136072;27;20187;-64
2022/10/08 03:54:02;;;;;;;14.70;13.23;;;;;;;15.11;100.00;-15296.75;5136237;27;20189;-62
2022/10/08 03:56:29;;;;;;;12.93;11.87;;;;;;;15.09;100.00;-17218.09;5136169;27;20187;-61
2022/10/08 03:58:58;;;;;;;13.93;12.67;;;;;;;15.08;100.00;-17538.00;5136009;27;20183;-62
2022/10/08 04:01:26;;;;;;;14.17;12.77;;;;;;;15.03;100.00;-17536.72;5136169;27;20270;-62
2022/10/08 04:03:53;;;;;;;13.70;12.37;;;;;;;14.97;100.00;-17215.28;5135970;27;20191;-61
2022/10/08 04:06:22;;;;;;;13.80;12.60;;;;;;;15.02;100.00;-17536.63;5135846;27;20209;-64
2022/10/08 04:08:49;;;;;;;12.33;11.47;;;;;;;14.89;100.00;-17853.63;5135870;27;20197;-63
2022/10/08 04:11:19;;;;;;;13.10;11.87;;;;;;;15.08;100.00;-18178.06;5136048;27;20183;-62
2022/10/08 04:13:46;;;;;;;12.90;11.80;;;;;;;15.07;100.00;-17857.75;5136034;27;20189;-63
2022/10/08 04:16:14;;;;;;;11.47;10.87;;;;;;;15.06;100.00;-17857.63;5135779;27;20193;-63
2022/10/08 04:18:42;;;;;;;11.83;11.03;;;;;;;15.10;100.00;-17858.44;5135666;27;20187;-62
2022/10/08 04:21:11;;;;;;;13.00;11.97;;;;;;;14.97;100.00;-17535.47;5135468;27;20230;-62
2022/10/08 04:23:40;;;;;;;12.60;11.43;;;;;;;15.09;100.00;-17538.22;5135727;27;20189;-63
2022/10/08 04:26:09;;;;;;;12.57;11.53;;;;;;;15.22;100.00;-17220.78;5135102;27;20211;-62
2022/10/08 04:28:37;;;;;;;13.30;11.90;;;;;;;15.21;100.00;-16259.88;5135670;27;20641;-63
2022/10/08 04:31:06;;;;;;;12.00;11.10;;;;;;;15.09;100.00;-16257.47;5117381;27;20193;-62
2022/10/08 04:33:35;;;;;;;12.90;11.70;;;;;;;15.26;100.00;-15299.75;5135800;27;20266;-64
2022/10/08 04:36:07;;;;;;;12.83;11.60;;;;;;;15.18;100.00;-14657.38;5135389;27;20179;-62
2022/10/08 04:38:34;;;;;;;12.83;11.67;;;;;;;15.33;100.00;-14018.91;5135213;27;20190;-63
2022/10/08 04:41:04;;;;;;;15.80;11.37;;;;;;;15.40;100.00;-13699.47;5135237;27;20193;-63
2022/10/08 04:43:31;;;;;;;11.63;10.93;;;;;;;15.36;100.00;-12736.75;5135326;27;20274;-62
2022/10/08 04:45:58;;;;;;;12.70;11.07;;;;;;;15.43;100.00;-12417.03;5135387;27;20225;-62
2022/10/08 04:48:25;;;;;;;13.17;12.10;;;;;;;15.45;100.00;-11775.63;5135453;27;20193;-62
2022/10/08 04:50:55;;;;;;;12.20;11.07;;;;;;;15.54;100.00;-10813.94;5135125;27;20261;-63
2022/10/08 04:53:24;;;;;;;12.63;11.43;;;;;;;15.55;100.00;-9208.56;5135640;27;20186;-63
2022/10/08 04:55:51;;;;;;;11.37;10.47;;;;;;;15.61;100.00;-8245.31;5135198;27;20629;-63
2022/10/08 04:58:20;;;;;;;12.23;11.10;;;;;;;15.64;100.00;-6960.03;5134977;27;20183;-63
2022/10/08 05:00:47;;;;;;;14.33;11.47;;;;;;;15.73;100.00;-4387.59;5134920;27;20183;-63
2022/10/08 05:03:14;;;;;;;12.27;11.03;;;;;;;15.71;100.00;-3100.34;5135225;27;20633;-62
2022/10/08 05:05:42;;;;;;;10.40;9.77;;;;;;;15.76;100.00;-2456.50;5135000;27;20681;-63
2022/10/08 05:08:09;;;;;;;14.07;10.37;;;;;;;15.75;100.00;-1490.53;5134787;27;20186;-63
2022/10/08 05:10:36;;;;;;;16.43;10.77;;;;;;;15.74;100.00;-2778.44;5134716;27;20193;-62
2022/10/08 05:13:04;;;;;;;11.17;10.00;;;;;;;15.82;100.00;-2456.41;5134916;27;20713;-62
2022/10/08 05:15:34;;;;;;;11.30;10.30;;;;;;;15.89;100.00;-1490.09;5134590;27;20182;-63
2022/10/08 05:18:01;;;;;;;10.73;9.93;;;;;;;16.30;100.00;1736.00;5134457;27;20282;-63
2022/10/08 05:20:28;;;;;;;15.40;10.90;;;;;;;16.55;100.00;6906.41;5134448;27;20226;-63
2022/10/08 05:22:55;;;;;;;12.37;10.07;;;;;;;16.88;100.00;15332.41;5134781;27;20179;-65
2022/10/08 05:25:22;;;;;;;8.90;8.40;;;;;;;17.30;100.00;26070.75;5134325;27;20209;-64
2022/10/08 05:27:49;;;;;;;10.27;9.43;;;;;;;17.57;100.00;44699.34;5134361;27;20187;-64
2022/10/08 05:30:16;;;;;;;8.90;8.50;;;;;;;17.87;100.00;58841.88;5134353;27;20193;-65
2022/10/08 05:32:44;;;;;;;9.33;8.40;;;;;;;18.04;100.00;77670.53;5134736;27;20568;-64
2022/10/08 05:35:11;;;;;;;9.43;8.53;;;;;;;18.45;100.00;91329.53;5134270;27;20184;-64
2022/10/08 05:37:38;;;;;;;8.83;8.07;;;;;;;18.81;100.00;119776.19;5133261;27;20198;-64
2022/10/08 05:40:05;;;;;;;15.80;8.83;;;;;;;19.02;100.00;150817.78;5134326;27;20197;-65
2022/10/08 05:42:32;;;;;;;8.97;8.27;;;;;;;19.35;100.00;150900.53;5134663;27;20182;-65
2022/10/08 05:44:59;;;;;;;8.33;7.80;;;;;;;19.61;100.00;150968.00;5134035;27;20200;-65
2022/10/08 05:47:26;;;;;;;8.30;7.80;;;;;;;20.11;100.00;151091.50;5134081;27;20183;-65
2022/10/08 05:49:54;;;;;;;8.73;8.13;;;;;;;20.70;100.00;151240.53;5134568;27;20186;-65
2022/10/08 05:52:21;;;;;;;8.13;7.23;;;;;;;21.32;100.00;151398.53;5134472;27;20637;-65
2022/10/08 05:54:48;;;;;;;10.27;7.40;;;;;;;22.14;100.00;151605.09;5116106;27;20549;-65
2022/10/08 05:57:15;;;;;;;7.93;7.35;;;;;;;22.76;100.00;151760.69;5133864;27;20202;-65
2022/10/08 05:59:42;;;;;;;11.55;8.10;;;;;;;22.87;100.00;151788.78;5133881;27;20201;-65
2022/10/08 06:02:09;;;;;;;8.43;7.15;;;;;;;23.20;100.00;151871.69;5134120;27;20653;-65
2022/10/08 06:04:36;;;;;;;12.02;7.18;;;;;;;23.34;100.00;151907.41;5133993;27;20494;-65
2022/10/08 06:07:05;;;;;;;13.98;7.65;;;;;;;23.32;100.00;151902.31;5133744;27;20197;-65
2022/10/08 06:09:31;;;;;;;28.15;8.63;;;;;;;23.35;100.00;151908.69;5133937;27;20187;-65
2022/10/08 06:11:58;;;;;;;14.77;8.43;;;;;;;23.65;100.00;151985.31;5133958;27;20189;-65
2022/10/08 06:14:25;;;;;;;7.30;6.72;;;;;;;23.65;100.00;151985.31;5133606;27;20183;-65
2022/10/08 06:16:52;;;;;;;8.98;7.90;;;;;;;23.88;100.00;152042.75;5133635;27;20220;-65
2022/10/08 06:19:19;;;;;;;9.20;6.53;;;;;;;23.95;100.00;152060.63;5133457;27;20205;-65
2022/10/08 06:21:46;;;;;;;9.65;6.60;;;;;;;24.45;100.00;152188.34;5133639;27;20187;-65
2022/10/08 06:24:14;;;;;;;7.05;6.55;;;;;;;24.49;100.00;152197.25;5133489;27;20194;-66
2022/10/08 06:26:44;;;;;;;7.35;6.80;;;;;;;23.92;100.00;152054.25;5133967;27;20568;-64
2022/10/08 06:29:15;;;;;;;6.57;6.00;;;;;;;24.23;100.00;152132.16;5133325;27;20179;-65
2022/10/08 06:31:42;;;;;;;7.22;6.38;;;;;;;24.50;100.00;152199.84;5133483;27;20192;-64
2022/10/08 06:34:09;;;;;;;6.20;5.90;;;;;;;24.48;100.00;152196.03;5133220;27;20273;-65
2022/10/08 06:36:37;;;;;;;6.32;5.78;;;;;;;24.74;100.00;152261.13;5133649;27;20281;-65
2022/10/08 06:39:06;;;;;;;5.32;5.00;;;;;;;24.91;100.00;152304.59;5133599;27;20623;-66
2022/10/08 06:41:34;;;;;;;5.85;5.38;;;;;;;25.01;100.00;152328.88;5133932;27;20193;-65
2022/10/08 06:44:02;;;;;;;5.57;5.25;;;;;;;25.08;100.00;152345.50;5133388;27;20561;-66
2022/10/08 06:46:31;;;;;;;9.68;6.30;;;;;;;25.37;100.00;152420.91;5133405;27;20207;-66
2022/10/08 06:48:59;;;;;;;5.93;5.43;;;;;;;25.41;100.00;152429.84;5133175;27;20182;-65
2022/10/08 06:51:26;;;;;;;5.03;4.82;;;;;;;25.48;100.00;152449.00;5133229;27;20179;-65
2022/10/08 06:53:55;;;;;;;6.85;5.90;;;;;;;25.57;100.00;152470.75;5132993;27;20190;-66
2022/10/08 06:56:24;;;;;;;5.07;4.78;;;;;;;25.68;100.00;152498.84;5133007;27;20277;-66
2022/10/08 06:58:52;;;;;;;5.35;5.05;;;;;;;25.71;100.00;152505.28;5133322;27;20541;-66
2022/10/08 07:01:21;;;;;;;4.80;4.60;;;;;;;25.76;100.00;152519.31;5133106;27;20663;-65
2022/10/08 07:03:50;;;;;;;5.30;4.88;;;;;;;25.93;100.00;152562.75;5133488;27;20625;-66
2022/10/08 07:06:17;;;;;;;5.45;4.97;;;;;;;25.79;100.00;152527.00;5133313;27;20610;-66
2022/10/08 07:08:44;;;;;;;5.25;4.95;;;;;;;25.99;100.00;152575.56;5133306;27;20187;-66
2022/10/08 07:11:13;;;;;;;5.03;4.72;;;;;;;25.59;100.00;152475.84;5133130;27;20239;-66
2022/10/08 07:13:41;;;;;;;4.53;4.22;;;;;;;24.68;100.00;152245.81;5133312;28;20613;-65
2022/10/08 07:16:11;;;;;;;5.13;4.68;;;;;;;25.35;100.00;152414.47;5132760;28;20190;-65
2022/10/08 07:18:40;;;;;;;4.97;4.57;;;;;;;25.78;100.00;152524.44;5133077;28;20186;-66
2022/10/08 07:21:08;;;;;;;5.05;4.75;;;;;;;26.01;100.00;152580.69;5132998;28;20316;-66
2022/10/08 07:23:35;;;;;;;4.55;4.20;;;;;;;26.57;100.00;152722.63;5133027;28;20198;-66
2022/10/08 07:26:04;;;;;;;5.18;4.75;;;;;;;27.10;99.58;152858.25;5133078;28;20230;-66
2022/10/08 07:28:34;;;;;;;5.00;4.50;;;;;;;27.25;97.84;152895.34;5115900;28;20653;-65
2022/10/08 07:31:03;;;;;;;4.72;4.43;;;;;;;27.15;95.24;152869.78;5133093;28;20182;-65
2022/10/08 07:33:31;;;;;;;7.40;4.13;;;;;;;27.50;94.19;152958.06;5132538;28;20186;-65
2022/10/08 07:36:06;;;;;;;11.07;5.20;;;;;;;27.95;91.32;153071.97;5132952;28;20179;-66
2022/10/08 07:38:33;;;;;;;4.40;4.20;;;;;;;28.19;85.55;153133.44;5132746;28;20182;-66
2022/10/08 07:41:00;;;;;;;4.85;4.25;;;;;;;27.04;87.21;152841.59;5132661;28;20655;-66
2022/10/08 07:43:27;;;;;;;7.00;4.10;;;;;;;26.72;91.21;152762.28;5114303;28;20197;-66
2022/10/08 07:45:54;;;;;;;4.82;4.40;;;;;;;26.52;95.71;152711.09;5133408;28;20572;-66
2022/10/08 07:48:21;;;;;;;4.30;4.00;;;;;;;26.98;94.34;152826.28;5132910;28;20183;-66
2022/10/08 07:50:49;;;;;;;4.70;4.50;;;;;;;27.59;87.90;152981.09;5132581;28;20193;-66
2022/10/08 07:53:16;;;;;;;4.43;4.13;;;;;;;27.94;83.59;153069.41;5132879;28;20193;-66
2022/10/08 07:55:43;;;;;;;4.30;3.88;;;;;;;27.64;84.90;152993.91;5132805;28;20255;-66
2022/10/08 07:58:10;;;;;;;3.88;3.70;;;;;;;27.14;82.05;152867.22;5114114;28;20210;-67
2022/10/08 08:00:39;;;;;;;4.10;3.80;;;;;;;26.76;84.24;152771.22;5132718;27;20193;-66
2022/10/08 08:03:06;;;;;;;4.90;4.50;;;;;;;26.18;91.07;152624.16;5136424;27;20358;-67
2022/10/08 08:05:35;;;;;;;3.45;3.35;;;;;;;26.49;87.34;152702.16;5136494;27;20214;-67
2022/10/08 08:08:03;;;;;;;4.07;3.80;;;;;;;27.03;83.91;152839.09;5136241;27;20182;-65
2022/10/08 08:10:30;;;;;;;4.35;4.07;;;;;;;28.02;77.99;153089.88;5136267;27;20212;-67
2022/10/08 08:12:57;;;;;;;3.75;3.45;;;;;;;27.25;75.20;152895.34;5136169;27;20187;-66
2022/10/08 08:15:24;;;;;;;3.70;3.53;;;;;;;28.01;74.52;153087.31;5136293;27;20278;-66
2022/10/08 08:17:51;;;;;;;4.10;3.80;;;;;;;28.43;69.99;153193.66;5117931;27;20189;-66
2022/10/08 08:20:18;;;;;;;3.67;3.55;;;;;;;28.00;71.52;153084.78;5135987;27;20226;-66
2022/10/08 08:22:45;;;;;;;4.05;3.72;;;;;;;28.09;70.71;153109.13;5136401;27;20565;-66
2022/10/08 08:25:13;;;;;;;6.47;3.53;;;;;;;28.36;68.30;153176.97;5135826;27;20186;-66
2022/10/08 08:27:40;;;;;;;4.57;4.18;;;;;;;29.17;67.22;153381.91;5135944;27;20289;-67
2022/10/08 08:30:08;;;;;;;5.05;3.78;;;;;;;29.42;65.76;153446.00;5136103;27;20677;-67
2022/10/08 08:32:35;;;;;;;12.95;4.72;;;;;;;29.54;65.99;153474.16;5135746;27;20187;-67
2022/10/08 08:35:02;;;;;;;3.88;3.67;;;;;;;29.69;63.88;153513.91;5135709;27;20217;-66
2022/10/08 08:37:29;;;;;;;4.10;3.83;;;;;;;28.33;67.61;153168.03;5135748;27;20193;-66
2022/10/08 08:39:56;;;;;;;4.72;3.47;;;;;;;29.63;64.18;153497.22;5135884;27;20187;-66
2022/10/08 08:42:39;;;;;;;3.85;3.65;;;;;;;29.02;66.84;153343.50;5135817;27;20553;-67
2022/10/08 08:45:21;;;;;;;4.55;4.00;;;;;;;28.56;70.28;153228.19;5135696;27;20194;-67
2022/10/08 08:47:56;;;;;;;4.95;3.65;;;;;;;27.24;74.75;152892.81;5116912;27;20223;-66
2022/10/08 08:50:28;;;;;;;4.25;4.05;;;;;;;27.43;77.17;152941.41;5135657;27;20178;-66
2022/10/08 08:52:56;;;;;;;4.28;3.97;;;;;;;27.86;74.95;153050.22;5135349;27;20281;-66
2022/10/08 08:55:32;;;;;;;4.10;3.90;;;;;;;28.94;68.81;153324.25;5135291;27;20183;-65
2022/10/08 08:58:08;;;;;;;3.95;3.75;;;;;;;28.72;67.47;153266.66;5135181;27;20189;-66
2022/10/08 09:00:40;;;;;;;6.75;3.45;;;;;;;28.23;66.57;153143.69;5135477;27;20555;-67
2022/10/08 09:03:16;;;;;;;3.60;3.50;;;;;;;28.68;68.73;153256.38;5135662;27;20598;-66
2022/10/08 09:05:46;;;;;;;4.07;3.50;;;;;;;28.65;64.47;153248.66;5135069;27;20182;-66
2022/10/08 09:08:18;;;;;;;3.42;3.33;;;;;;;28.80;65.10;153287.16;5135150;27;20183;-67
2022/10/08 09:10:52;;;;;;;4.43;3.60;;;;;;;28.96;63.65;153329.41;5134942;27;20191;-68
2022/10/08 09:13:24;;;;;;;6.80;3.38;;;;;;;28.91;61.99;153315.31;5134143;27;20179;-65
2022/10/08 09:15:54;;;;;;;3.50;3.17;;;;;;;28.65;63.91;153248.66;5135873;27;20305;-66
2022/10/08 09:18:21;;;;;;;3.67;3.03;;;;;;;27.90;67.11;153060.47;5135306;27;20199;-66
2022/10/08 09:20:48;;;;;;;4.20;3.90;;;;;;;27.35;73.08;152920.94;5134884;27;20222;-66
2022/10/08 09:23:17;;;;;;;3.63;3.40;;;;;;;27.17;72.34;152874.88;5134712;27;20187;-66
2022/10/08 09:25:49;;;;;;;3.80;3.35;;;;;;;27.76;72.86;153023.31;5134755;27;20270;-67
2022/10/08 09:28:39;;;;;;;6.00;3.53;;;;;;;28.03;68.85;153092.47;5134690;27;20191;-66
2022/10/08 09:31:23;;;;;;;3.97;3.67;;;;;;;27.73;69.75;153016.94;5134552;27;20240;-66
2022/10/08 09:34:01;;;;;;;7.93;4.15;;;;;;;26.99;72.86;152828.84;5135206;27;20186;-65
2022/10/08 09:36:47;;;;;;;4.85;3.65;;;;;;;27.24;71.64;152892.81;5134834;27;20183;-65
2022/10/08 09:39:20;;;;;;;4.00;3.80;;;;;;;27.20;73.23;152883.81;5134211;27;20197;-65
2022/10/08 09:42:04;;;;;;;5.65;3.25;;;;;;;27.90;67.86;153060.47;5134949;27;20206;-66
2022/10/08 09:44:40;;;;;;;3.90;3.70;;;;;;;27.41;69.85;152935.03;5115946;27;20199;-66
2022/10/08 09:47:11;;;;;;;4.50;3.22;;;;;;;26.34;76.33;152666.41;5134460;27;20325;-65
2022/10/08 09:49:38;;;;;;;3.92;3.35;;;;;;;26.12;77.09;152608.78;5134070;27;20222;-64
2022/10/08 09:52:11;;;;;;;3.00;2.90;;;;;;;25.36;84.82;152417.03;5134302;27;20189;-65
2022/10/08 09:54:47;;;;;;;3.75;3.45;;;;;;;26.25;79.22;152642.09;5134554;27;20182;-65
2022/10/08 09:57:16;;;;;;;6.10;3.33;;;;;;;27.01;76.39;152833.94;5134295;27;20255;-65
2022/10/08 09:59:52;;;;;;;3.75;3.45;;;;;;;28.30;66.70;153161.66;5134422;27;20568;-66
2022/10/08 10:02:28;;;;;;;3.80;3.60;;;;;;;29.20;60.56;153389.59;5134039;27;20193;-66
2022/10/08 10:04:57;;;;;;;3.72;3.42;;;;;;;27.06;68.83;152846.75;5134178;27;20665;-64
2022/10/08 10:07:25;;;;;;;5.47;3.40;;;;;;;27.18;72.03;152878.72;5133980;27;20214;-66
2022/10/08 10:09:55;;;;;;;3.13;2.92;;;;;;;27.91;68.51;153061.75;5134553;27;20557;-66
2022/10/08 10:12:27;;;;;;;3.55;3.30;;;;;;;28.80;62.92;153287.16;5134779;27;20209;-67
2022/10/08 10:14:59;;;;;;;3.53;2.95;;;;;;;29.44;61.08;153449.88;5134147;27;20592;-66
2022/10/08 10:17:35;;;;;;;3.50;3.30;;;;;;;29.74;57.10;153526.75;5133839;27;20185;-66
2022/10/08 10:20:06;;;;;;;3.97;3.78;;;;;;;29.31;60.01;153416.56;5133734;27;20241;-65
2022/10/08 10:22:41;;;;;;;3.50;3.30;;;;;;;28.16;61.58;153125.78;5134247;27;20679;-66
2022/10/08 10:25:17;;;;;;;3.10;2.80;;;;;;;26.75;67.86;152769.94;5133332;27;20270;-66
2022/10/08 10:27:52;;;;;;;3.05;2.85;;;;;;;26.87;67.18;152799.41;5134033;27;20202;-65
2022/10/08 10:30:22;;;;;;;2.97;2.88;;;;;;;27.53;66.83;152967.06;5133643;27;20186;-66
2022/10/08 10:32:54;;;;;;;3.25;3.15;;;;;;;28.17;62.30;153127.06;5133816;27;20191;-65
2022/10/08 10:35:25;;;;;;;3.28;3.08;;;;;;;26.88;65.35;152800.69;5133807;27;20209;-65
2022/10/08 10:37:58;;;;;;;3.15;2.83;;;;;;;25.94;72.50;152564.03;5133446;27;20179;-64
2022/10/08 10:40:40;;;;;;;3.35;3.15;;;;;;;26.34;70.96;152666.41;5134226;27;20671;-66
2022/10/08 10:43:18;;;;;;;2.72;2.63;;;;;;;27.48;66.66;152954.25;5133651;27;20208;-66
2022/10/08 10:45:52;;;;;;;2.90;2.80;;;;;;;28.09;62.12;153107.84;5133365;27;20560;-66
2022/10/08 10:48:19;;;;;;;5.35;2.97;;;;;;;27.84;63.37;153045.09;5115459;27;20688;-65
2022/10/08 10:51:00;;;;;;;3.08;2.88;;;;;;;27.05;65.17;152845.47;5133436;27;20182;-65
2022/10/08 10:53:36;;;;;;;3.85;3.30;;;;;;;26.55;69.12;152718.81;5116385;27;20650;-65
2022/10/08 10:56:12;;;;;;;4.38;3.30;;;;;;;26.13;73.83;152611.38;5133412;27;20265;-65
2022/10/08 10:59:02;;;;;;;3.22;3.03;;;;;;;28.17;65.08;153128.34;5133277;27;20195;-65
2022/10/08 11:01:39;;;;;;;2.88;2.78;;;;;;;30.16;55.07;153633.13;5132953;27;20178;-65
2022/10/08 11:04:14;;;;;;;4.82;2.95;;;;;;;30.44;50.48;153702.31;5133097;27;20209;-65
2022/10/08 11:06:55;;;;;;;10.18;3.00;;;;;;;29.16;53.46;153379.34;5132689;27;20206;-65
2022/10/08 11:09:36;;;;;;;3.08;2.70;;;;;;;28.12;60.61;153115.56;5132775;27;20189;-65
2022/10/08 11:12:20;;;;;;;2.78;2.58;;;;;;;27.48;60.74;152954.25;5132919;27;20183;-66
2022/10/08 11:14:59;;;;;;;3.08;2.80;;;;;;;27.27;65.23;152901.75;5133152;28;20360;-65
2022/10/08 11:17:45;;;;;;;3.10;3.00;;;;;;;26.38;67.19;152675.34;5132707;28;20269;-65
2022/10/08 11:20:43;;;;;;;3.88;3.15;;;;;;;25.86;70.23;152544.88;5132875;28;20726;-64
2022/10/08 11:23:28;;;;;;;5.25;3.45;;;;;;;25.45;72.80;152440.06;5097618;28;20281;-65
2022/10/08 11:25:59;;;;;;;3.55;3.28;;;;;;;25.21;76.29;152379.97;5133015;28;20265;-65
2022/10/08 11:28:36;;;;;;;3.42;3.33;;;;;;;25.12;77.43;152355.72;5132892;28;20558;-65
2022/10/08 11:31:11;;;;;;;3.28;2.80;;;;;;;25.23;79.71;152383.81;5132628;28;20655;-65
2022/10/08 11:33:39;;;;;;;5.85;2.83;;;;;;;24.99;81.34;152325.03;5133296;28;20652;-65
2022/10/08 11:36:19;;;;;;;3.25;3.00;;;;;;;24.96;78.32;152316.09;5133599;27;20182;-65